Time;durP1;ratioP1;P1;durP2;ratioP2;P2;SDS_P1;SDS_P2;PMS_P1;PMS_P2;Temp;Humidity;BMP_temperature;BMP_pressure;BME280_temperature;BME280_humidity;BME280_pressure;Samples;Min_cycle;Max_cycle;Signal;HPM_P1;HPM_P2
2023/12/06 00:02:02;;;;;;;27.20;8.60;;;;;;;-5.30;93.78;100101.20;107637;1276;61101;-64
2023/12/06 00:04:51;;;;;;;31.70;13.40;;;;;;;-5.32;93.90;100105.05;107644;1276;73644;-67
2023/12/06 00:07:39;;;;;;;32.50;14.10;;;;;;;-5.35;94.13;100102.32;107447;1276;68598;-66
2023/12/06 00:10:27;;;;;;;32.50;13.30;;;;;;;-5.37;94.36;100105.80;107533;1276;73801;-66
2023/12/06 00:13:14;;;;;;;26.10;10.20;;;;;;;-5.38;94.27;100108.07;107823;1276;58346;-66
2023/12/06 00:16:02;;;;;;;31.40;12.40;;;;;;;-5.38;94.53;100108.92;107637;1276;60151;-67
2023/12/06 00:18:50;;;;;;;36.10;12.70;;;;;;;-5.37;94.27;100110.98;107655;1276;73381;-67
2023/12/06 00:21:38;;;;;;;35.50;15.20;;;;;;;-5.33;94.23;100116.13;107832;1276;66356;-68
2023/12/06 00:24:26;;;;;;;34.20;13.50;;;;;;;-5.33;94.23;100116.13;107805;1275;73697;-67
2023/12/06 00:27:14;;;;;;;32.00;12.10;;;;;;;-5.32;94.23;100113.35;107433;1275;58154;-67
2023/12/06 00:30:02;;;;;;;29.20;12.20;;;;;;;-5.33;93.98;100112.15;107810;1276;59165;-68
2023/12/06 00:32:50;;;;;;;27.80;11.50;;;;;;;-5.33;93.82;100109.38;107067;1276;1002739;-67
2023/12/06 00:35:37;;;;;;;34.90;15.90;;;;;;;-5.35;94.26;100113.55;107042;1276;1002413;-69
2023/12/06 00:38:25;;;;;;;25.40;10.70;;;;;;;-5.38;94.35;100111.70;107603;1276;70940;-68
2023/12/06 00:41:14;;;;;;;34.70;13.20;;;;;;;-5.39;94.41;100109.63;106737;1276;1002258;-68
2023/12/06 00:44:03;;;;;;;32.50;12.90;;;;;;;-5.38;94.09;100104.95;107688;1275;60212;-68
2023/12/06 00:46:51;;;;;;;36.40;12.90;;;;;;;-5.36;94.39;100100.77;107660;1276;73923;-66
2023/12/06 00:49:39;;;;;;;31.70;13.30;;;;;;;-5.33;94.18;100101.42;107842;1276;68902;-68
2023/12/06 00:52:26;;;;;;;34.00;13.70;;;;;;;-5.30;94.24;100100.36;107399;1282;72699;-66
2023/12/06 00:55:16;;;;;;;42.70;12.60;;;;;;;-5.32;94.04;100100.38;107821;1280;58154;-69
2023/12/06 00:58:05;;;;;;;32.20;12.30;;;;;;;-5.30;94.15;100104.15;107379;1280;58831;-67
2023/12/06 01:00:53;;;;;;;36.60;16.50;;;;;;;-5.30;93.99;100105.37;106233;1280;1002701;-67
2023/12/06 01:03:41;;;;;;;39.30;15.80;;;;;;;-5.28;94.26;100102.75;107157;1280;67878;-68
2023/12/06 01:06:30;;;;;;;26.50;10.10;;;;;;;-5.27;93.93;100098.25;107404;1280;72417;-67
2023/12/06 01:09:18;;;;;;;28.20;11.40;;;;;;;-5.27;93.98;100096.70;107217;1279;58305;-69
2023/12/06 01:12:06;;;;;;;34.70;13.80;;;;;;;-5.29;94.12;100098.09;106515;1280;1003102;-68
2023/12/06 01:14:54;;;;;;;36.20;14.60;;;;;;;-5.30;94.16;100096.20;107106;1280;71999;-68
2023/12/06 01:17:42;;;;;;;38.20;14.60;;;;;;;-5.29;94.02;100099.12;107431;1280;67652;-68
2023/12/06 01:20:30;;;;;;;29.20;12.10;;;;;;;-5.30;94.19;100097.24;106569;1280;1002211;-69
2023/12/06 01:23:18;;;;;;;34.00;13.80;;;;;;;-5.27;94.41;100099.98;107218;1279;60641;-68
2023/12/06 01:26:06;;;;;;;42.30;17.50;;;;;;;-5.24;93.93;100103.23;106498;1280;1002134;-69
2023/12/06 01:28:56;;;;;;;38.50;16.90;;;;;;;-5.22;94.02;100106.84;107198;1280;72294;-69
2023/12/06 01:31:44;;;;;;;25.70;10.50;;;;;;;-5.21;94.05;100113.22;107353;1280;68724;-68
2023/12/06 01:34:32;;;;;;;42.20;17.10;;;;;;;-5.21;94.01;100109.58;106466;1280;1002702;-70
2023/12/06 01:37:20;;;;;;;31.70;12.90;;;;;;;-5.23;93.91;100108.21;107702;1276;58136;-68
2023/12/06 01:40:09;;;;;;;31.40;13.50;;;;;;;-5.25;93.85;100107.55;106805;1279;1002721;-68
2023/12/06 01:42:57;;;;;;;35.00;14.60;;;;;;;-5.27;93.81;100105.50;107490;1277;73974;-66
2023/12/06 01:45:46;;;;;;;33.00;12.50;;;;;;;-5.27;93.87;100108.11;106591;1276;1002194;-67
2023/12/06 01:48:36;;;;;;;34.30;12.80;;;;;;;-5.27;93.75;100111.57;107563;1277;72431;-66
2023/12/06 01:51:24;;;;;;;38.70;15.70;;;;;;;-5.28;93.62;100116.06;107500;1278;59596;-67
2023/12/06 01:54:12;;;;;;;42.20;17.00;;;;;;;-5.27;93.53;100117.97;107539;1276;60284;-66
2023/12/06 01:57:00;;;;;;;32.40;13.80;;;;;;;-5.26;93.53;100119.34;107733;1276;73628;-66
2023/12/06 01:59:48;;;;;;;31.50;13.00;;;;;;;-5.24;93.41;100120.00;107415;1276;66591;-68
2023/12/06 02:02:36;;;;;;;35.80;15.20;;;;;;;-5.28;93.15;100115.73;107516;1282;72913;-66
2023/12/06 02:05:24;;;;;;;35.00;14.30;;;;;;;-5.34;93.30;100121.85;106653;1277;1002448;-67
2023/12/06 02:08:12;;;;;;;29.40;11.90;;;;;;;-5.38;93.28;100118.09;107481;1283;60394;-69
2023/12/06 02:11:00;;;;;;;26.30;10.10;;;;;;;-5.44;93.40;100117.83;107019;1277;1002279;-68
2023/12/06 02:13:48;;;;;;;28.80;12.40;;;;;;;-5.51;93.52;100116.85;106869;1276;1002102;-67
2023/12/06 02:16:36;;;;;;;31.80;13.20;;;;;;;-5.55;93.50;100113.97;107434;1276;72590;-68
2023/12/06 02:19:27;;;;;;;39.80;16.90;;;;;;;-5.57;93.49;100112.60;107679;1276;60704;-68
2023/12/06 02:22:15;;;;;;;38.30;15.10;;;;;;;-5.58;93.51;100115.89;107422;1276;60453;-67
2023/12/06 02:25:10;;;;;;;32.30;12.80;;;;;;;-5.70;93.59;100102.18;106774;1276;1002919;-65
2023/12/06 02:27:58;;;;;;;30.90;13.50;;;;;;;-5.66;93.53;100112.18;107598;1276;68660;-67
2023/12/06 02:30:45;;;;;;;39.60;18.00;;;;;;;-5.72;93.75;100114.14;107727;1276;73590;-68
2023/12/06 02:33:35;;;;;;;38.60;14.90;;;;;;;-5.82;94.34;100106.11;107712;1276;58359;-66
2023/12/06 02:36:24;;;;;;;40.40;16.90;;;;;;;-5.86;94.41;100099.41;107462;1276;59503;-65
2023/12/06 02:39:12;;;;;;;37.50;15.10;;;;;;;-5.91;95.17;100091.50;106814;1276;1002620;-66
2023/12/06 02:42:00;;;;;;;34.80;14.90;;;;;;;-5.92;95.42;100089.61;106598;1277;1002090;-67
2023/12/06 02:44:48;;;;;;;35.90;14.80;;;;;;;-5.91;95.41;100090.48;107557;1276;72670;-65
2023/12/06 02:47:37;;;;;;;37.00;15.20;;;;;;;-5.91;95.36;100083.21;106682;1277;1002793;-66
2023/12/06 02:50:25;;;;;;;42.20;16.20;;;;;;;-5.92;95.48;100077.02;106791;1277;1002571;-65
2023/12/06 02:53:13;;;;;;;31.70;12.00;;;;;;;-5.86;95.53;100075.21;106660;1276;1002086;-67
2023/12/06 02:56:01;;;;;;;38.30;16.20;;;;;;;-5.83;95.82;100070.17;107428;1277;66175;-66
2023/12/06 02:58:49;;;;;;;38.60;16.10;;;;;;;-5.81;95.60;100067.38;107727;1277;71792;-66
2023/12/06 03:01:37;;;;;;;35.00;14.30;;;;;;;-5.77;95.53;100065.27;107733;1277;58184;-66
2023/12/06 03:04:25;;;;;;;35.20;14.80;;;;;;;-5.76;95.45;100063.02;107732;1277;58622;-67
2023/12/06 03:07:13;;;;;;;28.40;11.20;;;;;;;-5.73;95.24;100065.05;107763;1277;72846;-69
2023/12/06 03:10:02;;;;;;;38.60;15.40;;;;;;;-5.73;95.10;100063.85;107732;1276;65450;-68
2023/12/06 03:12:51;;;;;;;39.10;16.90;;;;;;;-5.79;95.19;100053.89;107710;1277;72783;-68
2023/12/06 03:15:39;;;;;;;37.10;14.80;;;;;;;-5.68;95.54;100057.05;107705;1276;58797;-67
2023/12/06 03:18:27;;;;;;;34.50;13.00;;;;;;;-5.62;95.10;100053.86;106793;1277;1002401;-68
2023/12/06 03:21:15;;;;;;;31.60;14.10;;;;;;;-5.58;94.87;100049.34;107409;1276;74588;-68
2023/12/06 03:24:04;;;;;;;37.10;14.00;;;;;;;-5.52;94.98;100057.73;107833;1276;68089;-71
2023/12/06 03:26:52;;;;;;;32.70;12.40;;;;;;;-5.50;94.87;100055.45;107426;1277;70443;-68
2023/12/06 03:29:40;;;;;;;39.80;16.70;;;;;;;-5.51;94.67;100057.37;107399;1277;58110;-71
2023/12/06 03:32:27;;;;;;;29.20;11.50;;;;;;;-5.51;94.69;100067.58;107717;1277;60415;-70
2023/12/06 03:35:16;;;;;;;32.20;12.70;;;;;;;-5.53;94.67;100070.89;107549;1276;74722;-72
2023/12/06 03:38:04;;;;;;;38.80;16.10;;;;;;;-5.51;94.96;100072.40;107543;1276;68928;-70
2023/12/06 03:40:52;;;;;;;42.20;16.70;;;;;;;-5.46;94.75;100074.95;107533;1277;73569;-71
2023/12/06 03:43:41;;;;;;;33.40;12.40;;;;;;;-5.40;94.59;100078.51;107497;1282;58350;-71
2023/12/06 03:46:49;;;;;;;33.80;13.60;;;;;;;-5.39;94.50;100081.27;106766;1277;1002176;-71
2023/12/06 03:49:37;;;;;;;30.00;10.60;;;;;;;-5.41;94.39;100078.52;107550;1276;73559;-70
2023/12/06 03:52:25;;;;;;;37.80;14.80;;;;;;;-5.49;94.32;100072.05;107551;1276;66429;-72
2023/12/06 03:55:12;;;;;;;30.20;11.50;;;;;;;-5.51;93.95;100091.09;107332;1276;73754;-70
2023/12/06 03:58:01;;;;;;;33.00;13.80;;;;;;;-5.60;94.01;100096.02;106746;1277;1002572;-69
2023/12/06 04:00:49;;;;;;;40.50;17.90;;;;;;;-5.87;94.25;100100.27;106781;1280;1002857;-70
2023/12/06 04:03:39;;;;;;;38.40;16.60;;;;;;;-5.95;94.27;100102.09;107719;1276;72315;-70
2023/12/06 04:06:27;;;;;;;45.00;17.40;;;;;;;-6.07;94.34;100110.17;107542;1276;68621;-68
2023/12/06 04:09:15;;;;;;;43.20;18.00;;;;;;;-6.27;94.13;100119.33;107530;1276;72637;-68
2023/12/06 04:12:03;;;;;;;27.80;11.80;;;;;;;-6.51;94.69;100120.37;107692;1278;58192;-64
2023/12/06 04:14:53;;;;;;;34.90;13.70;;;;;;;-6.71;95.56;100118.95;106768;1277;1002511;-66
2023/12/06 04:17:41;;;;;;;41.50;16.70;;;;;;;-6.80;96.44;100121.23;107458;1276;71521;-69
2023/12/06 04:20:29;;;;;;;40.80;16.80;;;;;;;-6.89;96.60;100126.13;107498;1276;69094;-68
2023/12/06 04:23:17;;;;;;;45.40;17.90;;;;;;;-6.96;97.19;100134.27;107358;1276;72501;-65
2023/12/06 04:26:04;;;;;;;45.10;18.30;;;;;;;-7.04;97.44;100133.61;107345;1276;59153;-70
2023/12/06 04:28:52;;;;;;;47.00;17.30;;;;;;;-7.13;97.77;100141.77;107519;1276;61351;-70
2023/12/06 04:31:40;;;;;;;38.90;16.10;;;;;;;-7.18;98.48;100145.75;107580;1278;75067;-71
2023/12/06 04:34:31;;;;;;;44.00;17.10;;;;;;;-7.28;98.47;100139.75;106837;1278;1002236;-71
2023/12/06 04:37:20;;;;;;;41.80;17.00;;;;;;;-7.33;98.62;100138.21;107295;1279;72590;-73
2023/12/06 04:40:08;;;;;;;42.00;14.80;;;;;;;-7.42;99.41;100138.42;107518;1279;60609;-72
2023/12/06 04:42:56;;;;;;;49.00;18.70;;;;;;;-7.48;99.28;100131.89;107514;1279;59723;-71
2023/12/06 04:45:45;;;;;;;35.70;14.20;;;;;;;-7.50;99.88;100133.96;107328;1279;73686;-71
2023/12/06 04:48:33;;;;;;;32.30;11.10;;;;;;;-7.50;99.95;100132.76;107425;1279;66753;-72
2023/12/06 04:51:21;;;;;;;40.30;15.10;;;;;;;-7.51;100.00;100137.06;106666;1279;1002119;-69
2023/12/06 04:54:09;;;;;;;29.60;13.40;;;;;;;-7.56;99.99;100136.23;107411;1279;58125;-70
2023/12/06 04:56:58;;;;;;;44.60;16.20;;;;;;;-7.63;100.00;100133.31;107327;1278;58199;-71
2023/12/06 04:59:46;;;;;;;41.10;17.60;;;;;;;-7.67;100.00;100130.04;107445;1279;72523;-69
2023/12/06 05:02:33;;;;;;;48.00;16.60;;;;;;;-7.72;100.00;100129.19;107597;1278;66615;-70
2023/12/06 05:05:22;;;;;;;46.60;18.10;;;;;;;-7.70;100.00;100129.02;106583;1279;1002346;-70
2023/12/06 05:08:10;;;;;;;39.90;14.30;;;;;;;-7.72;100.00;100131.26;107550;1279;58150;-70
2023/12/06 05:10:58;;;;;;;40.70;14.70;;;;;;;-7.74;100.00;100124.71;106856;1278;1002805;-69
2023/12/06 05:13:46;;;;;;;35.30;11.10;;;;;;;-7.70;100.00;100121.95;107498;1278;73884;-68
2023/12/06 05:16:37;;;;;;;53.90;17.40;;;;;;;-7.61;100.00;100123.30;106574;1279;1002712;-69
2023/12/06 05:19:26;;;;;;;52.80;17.70;;;;;;;-7.49;100.00;100123.09;107425;1278;72423;-69
2023/12/06 05:22:14;;;;;;;43.00;15.90;;;;;;;-7.42;100.00;100125.66;107176;1279;58173;-67
2023/12/06 05:25:06;;;;;;;46.10;17.60;;;;;;;-7.37;100.00;100120.80;106663;1278;1002942;-72
2023/12/06 05:27:54;;;;;;;39.60;13.90;;;;;;;-7.37;100.00;100117.20;107440;1279;71304;-69
2023/12/06 05:30:42;;;;;;;40.60;15.80;;;;;;;-7.42;100.00;100113.60;107533;1278;67621;-68
2023/12/06 05:33:30;;;;;;;40.20;14.10;;;;;;;-7.40;100.00;100113.92;107365;1279;72714;-68
2023/12/06 05:36:18;;;;;;;46.20;17.30;;;;;;;-7.41;100.00;100118.59;107370;1278;60618;-71
2023/12/06 05:39:07;;;;;;;37.90;14.00;;;;;;;-7.38;100.00;100123.58;107373;1278;58805;-66
2023/12/06 05:41:55;;;;;;;35.60;13.40;;;;;;;-7.36;100.00;100122.88;107416;1278;74881;-67
2023/12/06 05:44:43;;;;;;;40.90;13.80;;;;;;;-7.32;100.00;100130.11;107402;1279;67681;-72
2023/12/06 05:47:31;;;;;;;45.90;17.00;;;;;;;-7.34;100.00;100127.19;107423;1278;72664;-71
2023/12/06 05:50:18;;;;;;;48.10;18.20;;;;;;;-7.41;100.00;100129.96;107319;1278;58933;-67
2023/12/06 05:53:06;;;;;;;46.70;20.00;;;;;;;-7.36;100.00;100133.92;107605;1278;60103;-69
2023/12/06 05:55:54;;;;;;;45.70;17.60;;;;;;;-7.35;100.00;100133.91;106572;1280;1002455;-70
2023/12/06 05:58:42;;;;;;;47.60;18.00;;;;;;;-7.32;100.00;100132.19;107355;1280;65753;-68
2023/12/06 06:01:30;;;;;;;44.90;17.20;;;;;;;-7.31;100.00;100133.73;107565;1278;73604;-70
2023/12/06 06:04:18;;;;;;;49.20;19.00;;;;;;;-7.30;100.00;100135.80;107469;1278;58341;-70
2023/12/06 06:07:06;;;;;;;52.70;19.50;;;;;;;-7.28;100.00;100132.00;107451;1278;61046;-69
2023/12/06 06:09:54;;;;;;;38.50;16.20;;;;;;;-7.24;100.00;100138.02;107454;1279;73831;-70
2023/12/06 06:12:48;;;;;;;38.80;14.70;;;;;;;-7.21;100.00;100138.70;107421;1278;66118;-69
2023/12/06 06:15:36;;;;;;;39.60;16.50;;;;;;;-7.21;100.00;100138.86;107389;1279;72387;-69
2023/12/06 06:18:24;;;;;;;46.30;17.00;;;;;;;-7.15;100.00;100141.60;107326;1279;58128;-72
2023/12/06 06:21:13;;;;;;;51.80;17.50;;;;;;;-7.11;100.00;100136.41;107280;1278;60245;-68
2023/12/06 06:24:01;;;;;;;43.80;16.70;;;;;;;-7.07;100.00;100139.15;107444;1277;73387;-71
2023/12/06 06:26:49;;;;;;;46.10;18.20;;;;;;;-7.02;100.00;100134.81;106744;1278;1002074;-69
2023/12/06 06:29:37;;;;;;;39.80;14.70;;;;;;;-6.95;100.00;100132.03;106685;1278;1002994;-70
2023/12/06 06:32:25;;;;;;;39.40;15.30;;;;;;;-6.93;100.00;100140.30;106688;1278;1003104;-68
2023/12/06 06:35:13;;;;;;;40.10;14.70;;;;;;;-6.93;100.00;100136.66;107437;1277;61196;-68
2023/12/06 06:38:01;;;;;;;47.90;17.40;;;;;;;-6.90;100.00;100133.03;107593;1278;73760;-70
2023/12/06 06:40:50;;;;;;;39.00;14.80;;;;;;;-6.83;100.00;100132.13;107644;1278;68076;-70
2023/12/06 06:43:37;;;;;;;32.50;11.80;;;;;;;-6.80;100.00;100126.59;107407;1278;73442;-69
2023/12/06 06:46:25;;;;;;;35.90;14.70;;;;;;;-6.79;100.00;100126.23;107502;1279;58208;-70
2023/12/06 06:49:14;;;;;;;34.90;13.80;;;;;;;-6.76;100.00;100126.23;107473;1278;60416;-67
2023/12/06 06:52:01;;;;;;;44.50;15.80;;;;;;;-6.76;100.00;100125.19;107495;1279;75078;-67
2023/12/06 06:54:50;;;;;;;49.00;17.50;;;;;;;-6.71;100.00;100124.13;107453;1277;68652;-69
2023/12/06 06:57:38;;;;;;;55.80;19.00;;;;;;;-6.65;100.00;100122.54;107157;1278;72827;-68
2023/12/06 07:00:25;;;;;;;45.60;15.60;;;;;;;-6.58;100.00;100114.89;107464;1279;58152;-67
2023/12/06 07:03:21;;;;;;;45.20;16.30;;;;;;;-6.52;100.00;100119.50;107612;1277;58818;-69
2023/12/06 07:06:09;;;;;;;33.90;11.30;;;;;;;-6.49;100.00;100121.05;107590;1277;73623;-72
2023/12/06 07:08:57;;;;;;;39.70;15.90;;;;;;;-6.51;100.00;100124.86;106892;1278;1002960;-67
2023/12/06 07:11:45;;;;;;;50.40;15.90;;;;;;;-6.47;100.00;100132.61;107576;1279;72320;-71
2023/12/06 07:14:33;;;;;;;52.30;18.50;;;;;;;-6.42;100.00;100133.61;107423;1278;58295;-70
2023/12/06 07:17:20;;;;;;;42.60;16.00;;;;;;;-6.44;100.00;100133.27;106923;1278;1002990;-68
2023/12/06 07:20:11;;;;;;;42.20;15.00;;;;;;;-6.44;100.00;100126.37;107477;1278;73955;-69
2023/12/06 07:23:00;;;;;;;42.60;15.50;;;;;;;-6.36;100.00;100137.36;107700;1277;66454;-71
2023/12/06 07:25:47;;;;;;;40.30;12.50;;;;;;;-6.34;100.00;100141.31;107564;1278;71838;-70
2023/12/06 07:28:35;;;;;;;50.70;17.30;;;;;;;-6.28;100.00;100138.86;107450;1278;58171;-67
2023/12/06 07:31:23;;;;;;;48.50;16.90;;;;;;;-6.22;100.00;100132.42;107645;1278;60047;-69
2023/12/06 07:34:10;;;;;;;49.60;18.60;;;;;;;-6.17;100.00;100132.38;107456;1278;73978;-68
2023/12/06 07:37:08;;;;;;;38.40;14.70;;;;;;;-6.11;100.00;100132.86;107470;1278;67683;-68
2023/12/06 07:39:57;;;;;;;45.20;15.70;;;;;;;-6.10;100.00;100135.08;106846;1277;1002322;-70
2023/12/06 07:42:45;;;;;;;50.00;19.10;;;;;;;-6.07;100.00;100133.68;107628;1278;58256;-71
2023/12/06 07:45:33;;;;;;;52.70;16.60;;;;;;;-6.03;100.00;100133.82;107640;1278;58903;-68
2023/12/06 07:48:21;;;;;;;59.30;20.40;;;;;;;-5.95;100.00;100133.73;107593;1278;72357;-69
2023/12/06 07:51:09;;;;;;;37.30;14.20;;;;;;;-5.86;100.00;100135.02;107408;1278;65892;-68
2023/12/06 07:53:57;;;;;;;29.20;11.80;;;;;;;-5.80;100.00;100132.88;107405;1278;71338;-67
2023/12/06 07:56:44;;;;;;;34.30;12.60;;;;;;;-5.75;100.00;100138.89;107320;1278;58217;-68
2023/12/06 07:59:33;;;;;;;40.70;15.90;;;;;;;-5.74;100.00;100136.45;106613;1278;1002437;-68
2023/12/06 08:02:20;;;;;;;38.80;13.70;;;;;;;-5.81;100.00;100133.94;106619;1279;1002574;-70
2023/12/06 08:05:10;;;;;;;42.20;15.10;;;;;;;-5.71;100.00;100143.85;107373;1279;66770;-69
2023/12/06 08:07:59;;;;;;;38.10;13.20;;;;;;;-5.66;100.00;100142.60;107433;1278;72530;-69
2023/12/06 08:10:47;;;;;;;38.70;13.60;;;;;;;-5.62;100.00;100149.31;107633;1278;58350;-70
2023/12/06 08:13:35;;;;;;;44.40;15.50;;;;;;;-5.60;100.00;100151.18;107504;1280;60232;-68
2023/12/06 08:16:22;;;;;;;33.20;14.10;;;;;;;-5.57;100.00;100155.83;107620;1278;74018;-69
2023/12/06 08:19:12;;;;;;;33.30;12.00;;;;;;;-5.59;100.00;100155.16;107367;1277;67253;-68
2023/12/06 08:22:00;;;;;;;44.90;16.50;;;;;;;-5.58;100.00;100152.02;107360;1279;73764;-70
2023/12/06 08:24:48;;;;;;;45.90;16.50;;;;;;;-5.52;100.00;100147.48;107534;1278;58192;-69
2023/12/06 08:27:36;;;;;;;48.30;16.70;;;;;;;-5.52;100.00;100146.60;107482;1277;58815;-67
2023/12/06 08:30:24;;;;;;;35.80;12.40;;;;;;;-5.48;100.00;100143.29;107446;1277;73670;-67
2023/12/06 08:33:13;;;;;;;41.10;15.70;;;;;;;-5.46;100.00;100146.89;107458;1277;65539;-68
2023/12/06 08:36:02;;;;;;;37.50;14.20;;;;;;;-5.48;100.00;100144.83;107026;1279;71695;-69
2023/12/06 08:38:50;;;;;;;40.90;8.50;;;;;;;-5.41;100.00;100151.34;107614;1278;58255;-67
2023/12/06 08:41:38;;;;;;;40.40;14.40;;;;;;;-5.33;100.00;100155.57;107463;1278;59269;-67
2023/12/06 08:44:28;;;;;;;37.40;15.10;;;;;;;-5.26;100.00;100158.44;107606;1278;74554;-68
2023/12/06 08:47:17;;;;;;;36.80;14.70;;;;;;;-5.22;100.00;100158.39;107626;1278;67637;-68
2023/12/06 08:50:07;;;;;;;43.50;16.10;;;;;;;-5.18;100.00;100158.69;107453;1278;71534;-70
2023/12/06 08:52:55;;;;;;;38.40;17.10;;;;;;;-5.16;100.00;100160.75;107624;1278;58509;-68
2023/12/06 08:55:43;;;;;;;40.90;15.20;;;;;;;-5.19;100.00;100160.42;107534;1277;58943;-68
2023/12/06 08:58:31;;;;;;;44.00;15.70;;;;;;;-5.17;100.00;100161.45;107660;1278;74702;-69
2023/12/06 09:01:19;;;;;;;39.80;15.60;;;;;;;-5.15;100.00;100161.06;107511;1278;68025;-67
2023/12/06 09:04:09;;;;;;;38.50;15.60;;;;;;;-5.15;100.00;100160.73;107539;1276;70629;-68
2023/12/06 09:06:57;;;;;;;38.80;15.10;;;;;;;-5.12;100.00;100156.54;107639;1277;58152;-69
2023/12/06 09:09:45;;;;;;;42.50;15.20;;;;;;;-5.08;100.00;100161.52;107504;1278;59549;-69
2023/12/06 09:12:33;;;;;;;34.00;13.90;;;;;;;-5.09;100.00;100162.90;107652;1277;74075;-71
2023/12/06 09:15:22;;;;;;;36.50;11.20;;;;;;;-5.10;100.00;100164.48;107453;1276;67711;-68
2023/12/06 09:18:10;;;;;;;34.30;13.90;;;;;;;-5.07;100.00;100166.86;106937;1276;1002463;-70
2023/12/06 09:20:58;;;;;;;40.60;15.00;;;;;;;-5.08;100.00;100168.43;107574;1276;58462;-69
2023/12/06 09:23:47;;;;;;;31.60;12.40;;;;;;;-5.03;100.00;100169.59;107481;1276;59410;-68
2023/12/06 09:26:34;;;;;;;29.80;12.70;;;;;;;-4.99;100.00;100165.38;107469;1277;72734;-67
2023/12/06 09:29:23;;;;;;;41.10;16.30;;;;;;;-5.04;100.00;100166.30;107710;1277;66821;-70
2023/12/06 09:32:12;;;;;;;37.90;14.60;;;;;;;-5.03;100.00;100163.02;107701;1277;72516;-69
2023/12/06 09:34:59;;;;;;;40.20;16.10;;;;;;;-5.02;100.00;100165.41;107529;1277;58811;-69
2023/12/06 09:37:47;;;;;;;40.90;17.00;;;;;;;-4.99;100.00;100156.55;107698;1276;59138;-67
2023/12/06 09:40:36;;;;;;;31.70;12.40;;;;;;;-4.95;100.00;100152.52;106953;1276;1002189;-69
2023/12/06 09:43:24;;;;;;;46.20;17.00;;;;;;;-5.02;100.00;100152.95;106045;1276;1002346;-70
2023/12/06 09:46:15;;;;;;;39.70;15.40;;;;;;;-5.06;100.00;100146.09;106758;1276;1002550;-69
2023/12/06 09:49:03;;;;;;;36.80;13.70;;;;;;;-5.01;100.00;100140.66;107449;1276;58144;-69
2023/12/06 09:51:51;;;;;;;40.30;16.00;;;;;;;-5.00;100.00;100140.13;107691;1276;60033;-66
2023/12/06 09:54:47;;;;;;;39.50;15.50;;;;;;;-4.97;100.00;100139.57;107484;1276;73733;-69
2023/12/06 09:57:35;;;;;;;44.40;17.10;;;;;;;-4.96;100.00;100141.80;106724;1276;1002714;-69
2023/12/06 10:00:23;;;;;;;43.80;16.80;;;;;;;-4.91;100.00;100141.05;106579;1276;1002298;-68
2023/12/06 10:03:14;;;;;;;39.10;14.40;;;;;;;-4.83;100.00;100139.73;107714;1276;58220;-68
2023/12/06 10:06:03;;;;;;;42.50;17.20;;;;;;;-4.79;100.00;100141.05;107425;1276;58793;-69
2023/12/06 10:08:54;;;;;;;39.30;15.20;;;;;;;-4.72;100.00;100136.98;107718;1276;72358;-67
2023/12/06 10:11:42;;;;;;;43.70;17.30;;;;;;;-4.78;100.00;100140.70;107530;1276;67852;-71
2023/12/06 10:14:35;;;;;;;37.40;14.70;;;;;;;-4.81;100.00;100140.59;107515;1277;72495;-70
2023/12/06 10:17:25;;;;;;;44.10;17.90;;;;;;;-4.83;100.00;100137.66;107295;1277;58163;-68
2023/12/06 10:20:14;;;;;;;44.90;15.80;;;;;;;-4.87;100.00;100132.86;107502;1276;61428;-68
2023/12/06 10:23:02;;;;;;;42.90;15.20;;;;;;;-4.89;100.00;100134.27;107733;1276;74682;-70
2023/12/06 10:25:50;;;;;;;41.80;16.30;;;;;;;-4.83;100.00;100143.71;107724;1276;65616;-68
2023/12/06 10:28:38;;;;;;;34.20;12.50;;;;;;;-4.82;100.00;100137.98;107643;1276;71470;-68
2023/12/06 10:31:26;;;;;;;47.90;17.20;;;;;;;-4.80;100.00;100133.27;107470;1276;59226;-67
2023/12/06 10:34:15;;;;;;;38.70;15.50;;;;;;;-4.77;100.00;100134.11;106794;1276;1003047;-67
2023/12/06 10:37:04;;;;;;;40.50;14.00;;;;;;;-4.74;100.00;100131.47;107466;1276;72716;-68
2023/12/06 10:40:10;;;;;;;45.50;17.70;;;;;;;-4.74;100.00;100125.95;107721;1277;67719;-70
2023/12/06 10:43:04;;;;;;;36.00;12.40;;;;;;;-4.73;100.00;100121.61;107391;1277;72527;-72
2023/12/06 10:45:53;;;;;;;44.80;16.60;;;;;;;-4.71;100.00;100123.80;107386;1279;58166;-68
2023/12/06 10:48:42;;;;;;;47.30;15.60;;;;;;;-4.65;100.00;100128.05;106923;1277;1002304;-66
2023/12/06 10:51:30;;;;;;;44.80;18.70;;;;;;;-4.57;100.00;100119.63;106964;1276;1002481;-67
2023/12/06 10:54:20;;;;;;;38.70;14.60;;;;;;;-4.55;100.00;100115.27;107750;1277;67922;-68
2023/12/06 10:57:08;;;;;;;42.90;16.10;;;;;;;-4.48;100.00;100113.60;107700;1276;74079;-69
2023/12/06 10:59:57;;;;;;;43.20;16.60;;;;;;;-4.55;100.00;100112.16;107493;1276;60339;-71
2023/12/06 11:02:48;;;;;;;46.70;14.50;;;;;;;-4.52;100.00;100108.47;107531;1276;60108;-67
2023/12/06 11:05:43;;;;;;;45.30;17.30;;;;;;;-4.52;100.00;100104.83;107676;1276;73694;-69
2023/12/06 11:08:56;;;;;;;45.60;17.50;;;;;;;-4.54;100.00;100106.95;107559;1276;67887;-67
2023/12/06 11:12:19;;;;;;;40.70;15.90;;;;;;;-4.52;100.00;100108.11;107703;1276;71274;-69
2023/12/06 11:15:38;;;;;;;35.80;12.60;;;;;;;-4.48;100.00;100101.83;107693;1276;58615;-73
2023/12/06 11:18:43;;;;;;;48.20;16.40;;;;;;;-4.46;100.00;100095.73;106988;1276;1003090;-69
2023/12/06 11:21:32;;;;;;;50.20;15.80;;;;;;;-4.37;100.00;100096.27;107656;1276;72715;-67
2023/12/06 11:24:20;;;;;;;46.20;17.00;;;;;;;-4.31;100.00;100092.89;106790;1277;1002927;-68
2023/12/06 11:27:08;;;;;;;34.60;13.10;;;;;;;-4.27;100.00;100094.04;107412;1276;72467;-68
2023/12/06 11:29:56;;;;;;;38.60;15.80;;;;;;;-4.31;100.00;100099.33;106744;1276;1002715;-69
2023/12/06 11:32:45;;;;;;;48.50;17.00;;;;;;;-4.33;100.00;100099.35;107003;1276;1002208;-69
2023/12/06 11:35:43;;;;;;;48.50;18.30;;;;;;;-4.33;100.00;100096.39;107441;1276;72707;-68
2023/12/06 11:38:40;;;;;;;46.40;18.30;;;;;;;-4.31;100.00;100096.20;107722;1276;67900;-70
2023/12/06 11:41:27;;;;;;;45.50;16.90;;;;;;;-4.24;100.00;100094.34;107703;1277;72472;-67
2023/12/06 11:44:18;;;;;;;34.20;13.90;;;;;;;-4.25;100.00;100091.42;107345;1276;58663;-68
2023/12/06 11:47:06;;;;;;;35.80;14.20;;;;;;;-4.27;100.00;100096.30;107741;1276;58749;-67
2023/12/06 11:49:54;;;;;;;27.50;10.20;;;;;;;-4.28;100.00;100086.95;107546;1276;72511;-68
2023/12/06 11:52:49;;;;;;;45.70;17.30;;;;;;;-4.33;100.00;100080.46;107584;1276;67963;-68
2023/12/06 11:55:41;;;;;;;37.20;14.10;;;;;;;-4.33;100.00;100082.02;107273;1277;72715;-69
2023/12/06 11:58:30;;;;;;;38.90;14.10;;;;;;;-4.32;100.00;100081.48;106942;1277;1002179;-71
2023/12/06 12:01:22;;;;;;;42.70;16.80;;;;;;;-4.26;100.00;100084.67;107727;1277;58772;-66
2023/12/06 12:04:11;;;;;;;39.80;15.10;;;;;;;-4.19;100.00;100088.72;107647;1276;71992;-66
2023/12/06 12:07:00;;;;;;;47.60;19.00;;;;;;;-4.21;100.00;100090.14;107361;1276;67455;-66
2023/12/06 12:09:49;;;;;;;42.10;17.20;;;;;;;-4.22;100.00;100096.40;107396;1278;72384;-66
2023/12/06 12:12:38;;;;;;;44.00;15.90;;;;;;;-4.29;100.00;100101.20;107457;1277;58188;-66
2023/12/06 12:15:26;;;;;;;44.10;16.80;;;;;;;-4.31;100.00;100100.87;106703;1276;1002231;-69
2023/12/06 12:18:14;;;;;;;38.50;16.10;;;;;;;-4.40;100.00;100095.29;107454;1276;75155;-67
2023/12/06 12:21:07;;;;;;;39.70;11.70;;;;;;;-4.43;100.00;100099.34;107171;1277;67825;-67
2023/12/06 12:23:57;;;;;;;44.90;16.00;;;;;;;-4.42;100.00;100105.90;107438;1276;73575;-70
2023/12/06 12:26:46;;;;;;;47.90;17.40;;;;;;;-4.42;100.00;100107.98;107647;1276;58425;-70
2023/12/06 12:29:34;;;;;;;52.30;18.70;;;;;;;-4.37;100.00;100110.48;107693;1276;61092;-67
2023/12/06 12:32:22;;;;;;;45.30;17.60;;;;;;;-4.32;100.00;100109.04;107543;1277;73532;-67